Time;durP1;ratioP1;P1;durP2;ratioP2;P2;SDS_P1;SDS_P2;PMS_P1;PMS_P2;Temp;Humidity;BMP_temperature;BMP_pressure;BME280_temperature;BME280_humidity;BME280_pressure;Samples;Min_cycle;Max_cycle;Signal;HPM_P1;HPM_P2
2024/04/21 00:06:59;;;;;;;;;;;4.40;99.90;;;;;;22816650;26;20003;-75
2024/04/21 00:16:59;;;;;;;;;;;4.40;99.90;;;;;;22848663;26;19955;-76
2024/04/21 00:27:00;;;;;;;;;;;4.40;99.90;;;;;;22796150;26;20362;-75
2024/04/21 00:37:00;;;;;;;;;;;4.40;99.90;;;;;;22863830;26;19931;-75
2024/04/21 00:47:01;;;;;;;;;;;4.40;99.90;;;;;;22810708;26;20367;-75
2024/04/21 00:57:02;;;;;;;;;;;4.30;99.90;;;;;;22837873;26;19935;-76
2024/04/21 01:07:03;;;;;;;;;;;4.30;99.90;;;;;;22840094;26;19928;-75
2024/04/21 01:17:03;;;;;;;;;;;4.30;99.90;;;;;;22859166;26;19928;-75
2024/04/21 01:27:04;;;;;;;;;;;4.20;99.90;;;;;;22874982;26;20589;-74
2024/04/21 01:37:05;;;;;;;;;;;4.20;99.90;;;;;;22837171;26;19934;-75
2024/04/21 01:47:05;;;;;;;;;;;4.20;99.90;;;;;;22815857;26;19933;-75
2024/04/21 01:57:06;;;;;;;;;;;4.20;99.90;;;;;;22872737;26;20274;-76
2024/04/21 02:07:09;;;;;;;;;;;4.10;99.90;;;;;;22872280;26;19928;-76
2024/04/21 02:17:10;;;;;;;;;;;4.10;99.90;;;;;;22871145;26;20369;-75
2024/04/21 02:27:11;;;;;;;;;;;4.10;99.90;;;;;;22870733;26;20464;-76
2024/04/21 02:37:11;;;;;;;;;;;4.10;99.90;;;;;;22870472;26;19936;-76
2024/04/21 02:47:12;;;;;;;;;;;4.00;99.90;;;;;;22870125;26;19935;-76
2024/04/21 02:57:13;;;;;;;;;;;3.90;99.90;;;;;;22870108;26;19927;-76
2024/04/21 03:07:13;;;;;;;;;;;4.00;99.90;;;;;;22869153;26;19934;-76
2024/04/21 03:17:14;;;;;;;;;;;4.10;99.90;;;;;;22870197;26;19928;-75
2024/04/21 03:27:15;;;;;;;;;;;4.00;99.90;;;;;;22866551;26;20263;-76
2024/04/21 03:37:15;;;;;;;;;;;4.00;99.90;;;;;;22866198;26;19938;-76
2024/04/21 03:47:16;;;;;;;;;;;4.00;99.90;;;;;;22867056;26;19955;-76
2024/04/21 03:57:17;;;;;;;;;;;4.00;99.90;;;;;;22864189;26;19931;-76
2024/04/21 04:07:17;;;;;;;;;;;4.00;99.90;;;;;;22865640;26;19935;-76
2024/04/21 04:17:18;;;;;;;;;;;4.00;99.90;;;;;;22819484;26;20350;-76
2024/04/21 04:27:19;;;;;;;;;;;3.90;99.90;;;;;;22833798;26;19935;-75
2024/04/21 04:37:20;;;;;;;;;;;3.90;99.90;;;;;;22761124;26;19943;-75
2024/04/21 04:47:20;;;;;;;;;;;3.90;99.90;;;;;;22868680;26;19994;-75
2024/04/21 04:57:21;;;;;;;;;;;3.90;99.90;;;;;;22874229;26;19928;-76
2024/04/21 05:07:21;;;;;;;;;;;3.80;99.90;;;;;;22833858;26;20365;-76
2024/04/21 05:17:22;;;;;;;;;;;3.90;99.90;;;;;;22721719;26;19928;-75
2024/04/21 05:27:23;;;;;;;;;;;3.90;99.90;;;;;;22722028;26;19935;-75
2024/04/21 05:37:23;;;;;;;;;;;4.00;99.90;;;;;;22719307;26;20264;-76
2024/04/21 05:47:24;;;;;;;;;;;4.10;99.90;;;;;;22720341;26;19928;-75
2024/04/21 05:57:25;;;;;;;;;;;4.10;99.90;;;;;;22718929;26;19935;-75
2024/04/21 06:07:25;;;;;;;;;;;4.20;99.90;;;;;;22719869;26;19928;-75
2024/04/21 06:17:26;;;;;;;;;;;4.40;99.90;;;;;;22717169;26;19928;-75
2024/04/21 06:27:28;;;;;;;;;;;4.50;99.90;;;;;;22725984;26;19943;-75
2024/04/21 06:37:29;;;;;;;;;;;4.70;99.90;;;;;;22715819;26;19935;-76
2024/04/21 06:47:30;;;;;;;;;;;4.60;99.90;;;;;;22717822;26;19928;-76
2024/04/21 06:57:31;;;;;;;;;;;4.60;99.90;;;;;;22717463;26;20363;-75
2024/04/21 07:07:32;;;;;;;;;;;4.60;99.90;;;;;;22771377;26;19928;-77
2024/04/21 07:17:33;;;;;;;;;;;4.80;99.90;;;;;;22773648;26;20378;-76
2024/04/21 07:27:33;;;;;;;;;;;4.70;99.90;;;;;;22780105;26;19935;-77
2024/04/21 07:37:34;;;;;;;;;;;4.60;99.90;;;;;;22721254;26;19939;-75
2024/04/21 07:47:35;;;;;;;;;;;4.70;99.90;;;;;;22727542;26;19936;-76
2024/04/21 07:57:35;;;;;;;;;;;4.50;99.90;;;;;;22864983;26;19938;-75
2024/04/21 08:07:36;;;;;;;;;;;4.40;99.90;;;;;;22863091;26;19938;-76
2024/04/21 08:17:37;;;;;;;;;;;4.40;99.90;;;;;;22772307;26;20071;-76
2024/04/21 08:27:37;;;;;;;;;;;4.30;99.90;;;;;;22862129;26;20398;-75
2024/04/21 08:37:39;;;;;;;;;;;4.20;99.90;;;;;;22801478;26;19927;-75
2024/04/21 08:47:39;;;;;;;;;;;4.00;99.90;;;;;;22846291;26;19936;-76
2024/04/21 08:57:41;;;;;;;;;;;3.50;99.90;;;;;;22859424;26;19959;-75
2024/04/21 09:07:42;;;;;;;;;;;3.60;99.90;;;;;;22797849;26;19928;-76
2024/04/21 09:17:43;;;;;;;;;;;4.00;99.90;;;;;;22800217;26;19928;-76
2024/04/21 09:27:47;;;;;;;;;;;4.00;99.90;;;;;;22758574;26;20003;-75
2024/04/21 09:37:48;;;;;;;;;;;4.10;99.90;;;;;;22765319;26;19928;-75
2024/04/21 09:47:48;;;;;;;;;;;4.00;99.90;;;;;;22739798;26;20379;-76
2024/04/21 09:57:57;;;;;;;;;;;4.10;99.90;;;;;;22753942;26;19928;-76
2024/04/21 10:07:58;;;;;;;;;;;4.10;99.90;;;;;;22740649;26;20275;-76
2024/04/21 10:18:01;;;;;;;;;;;4.10;99.90;;;;;;22752039;26;20030;-75
2024/04/21 10:28:08;;;;;;;;;;;4.00;99.90;;;;;;22742083;26;19928;-75
2024/04/21 10:38:10;;;;;;;;;;;4.20;99.90;;;;;;22740632;26;19936;-76
2024/04/21 10:48:10;;;;;;;;;;;4.70;99.90;;;;;;22746375;26;19935;-75
2024/04/21 10:58:12;;;;;;;;;;;5.40;99.90;;;;;;22866702;26;20367;-75
2024/04/21 11:08:13;;;;;;;;;;;6.10;99.90;;;;;;22867566;26;19939;-73
2024/04/21 11:18:15;;;;;;;;;;;5.70;99.90;;;;;;22799416;26;19928;-75
2024/04/21 11:28:16;;;;;;;;;;;7.00;99.90;;;;;;22799637;26;19947;-76
2024/04/21 11:38:17;;;;;;;;;;;6.80;99.90;;;;;;22820225;26;19992;-76
2024/04/21 11:48:17;;;;;;;;;;;6.40;99.90;;;;;;22784729;26;20248;-75
2024/04/21 11:58:18;;;;;;;;;;;6.50;99.90;;;;;;22814689;26;19927;-76
2024/04/21 12:08:19;;;;;;;;;;;6.80;99.90;;;;;;22865629;26;20006;-76
2024/04/21 12:18:20;;;;;;;;;;;6.60;99.90;;;;;;22789045;26;19927;-77
2024/04/21 12:28:20;;;;;;;;;;;4.50;99.90;;;;;;22863110;26;19934;-76
2024/04/21 12:38:21;;;;;;;;;;;3.80;99.90;;;;;;22821537;26;20009;-77
2024/04/21 12:48:22;;;;;;;;;;;5.50;99.90;;;;;;22834998;26;19956;-77
2024/04/21 12:58:23;;;;;;;;;;;6.10;99.90;;;;;;22864537;26;19934;-76
2024/04/21 13:08:24;;;;;;;;;;;5.70;99.90;;;;;;22802923;26;19960;-77
2024/04/21 13:18:25;;;;;;;;;;;5.90;99.90;;;;;;22783537;26;20358;-77
2024/04/21 13:28:26;;;;;;;;;;;5.80;99.90;;;;;;22875643;26;19933;-74
2024/04/21 13:38:27;;;;;;;;;;;5.30;99.90;;;;;;22872908;26;20393;-76
2024/04/21 13:48:27;;;;;;;;;;;5.60;99.90;;;;;;22824956;26;19938;-75
2024/04/21 13:58:28;;;;;;;;;;;6.40;99.90;;;;;;22825682;26;20375;-75
2024/04/21 14:08:28;;;;;;;;;;;6.50;99.90;;;;;;22870945;26;19932;-75
2024/04/21 14:18:29;;;;;;;;;;;7.00;99.90;;;;;;22796280;26;19931;-74
2024/04/21 14:28:31;;;;;;;;;;;6.70;99.90;;;;;;22867862;26;19942;-78
2024/04/21 14:38:32;;;;;;;;;;;6.80;99.90;;;;;;22859492;25;20337;-75
2024/04/21 14:48:33;;;;;;;;;;;6.90;99.90;;;;;;22862940;25;19928;-75
2024/04/21 14:58:34;;;;;;;;;;;5.30;99.90;;;;;;22823568;26;19934;-76
2024/04/21 15:08:34;;;;;;;;;;;6.20;99.90;;;;;;22808712;26;19928;-76
2024/04/21 15:18:35;;;;;;;;;;;6.20;99.90;;;;;;22866310;26;20371;-76
2024/04/21 15:28:35;;;;;;;;;;;6.00;99.90;;;;;;22835141;26;19934;-76
2024/04/21 15:38:37;;;;;;;;;;;5.80;99.90;;;;;;22803830;26;19934;-76
2024/04/21 15:48:37;;;;;;;;;;;6.80;99.90;;;;;;22850234;26;20270;-75
2024/04/21 15:58:38;;;;;;;;;;;6.50;99.90;;;;;;22802465;26;19935;-76
2024/04/21 16:08:39;;;;;;;;;;;5.70;99.90;;;;;;22815592;26;19927;-76
2024/04/21 16:18:42;;;;;;;;;;;5.50;99.90;;;;;;22846158;26;19935;-77
2024/04/21 16:28:43;;;;;;;;;;;5.30;99.90;;;;;;22774058;26;20298;-76
2024/04/21 16:38:44;;;;;;;;;;;5.40;99.90;;;;;;22814825;26;20262;-77
2024/04/21 16:48:45;;;;;;;;;;;5.40;99.90;;;;;;22741259;26;19935;-76
2024/04/21 16:58:47;;;;;;;;;;;4.90;99.90;;;;;;22830803;26;20122;-76
2024/04/21 17:08:47;;;;;;;;;;;4.60;99.90;;;;;;22790547;26;20363;-75
2024/04/21 17:18:48;;;;;;;;;;;4.30;99.90;;;;;;22828750;26;20001;-76
2024/04/21 17:28:49;;;;;;;;;;;4.10;99.90;;;;;;22776111;26;19928;-76
2024/04/21 17:38:50;;;;;;;;;;;3.90;99.90;;;;;;22796883;26;20364;-75
2024/04/21 17:48:51;;;;;;;;;;;4.10;99.90;;;;;;22794362;26;19934;-76
2024/04/21 17:58:52;;;;;;;;;;;4.10;99.90;;;;;;22794209;26;19935;-76
2024/04/21 18:08:53;;;;;;;;;;;4.30;99.90;;;;;;22782595;26;20363;-76
2024/04/21 18:18:55;;;;;;;;;;;4.30;99.90;;;;;;22769929;26;19928;-76
2024/04/21 18:28:56;;;;;;;;;;;4.00;99.90;;;;;;22825886;26;19959;-76
2024/04/21 18:38:57;;;;;;;;;;;4.10;99.90;;;;;;22830039;26;19955;-76
2024/04/21 18:49:01;;;;;;;;;;;4.20;99.90;;;;;;22810550;26;21407;-75
2024/04/21 18:59:02;;;;;;;;;;;3.60;99.90;;;;;;22819854;26;19935;-76
2024/04/21 19:09:03;;;;;;;;;;;3.30;99.90;;;;;;22816307;26;19927;-74
2024/04/21 19:19:04;;;;;;;;;;;3.00;99.90;;;;;;22833553;26;19956;-76
2024/04/21 19:29:05;;;;;;;;;;;2.60;99.90;;;;;;22800837;26;19956;-75
2024/04/21 19:39:06;;;;;;;;;;;2.20;99.90;;;;;;22813316;26;19929;-76
2024/04/21 19:49:07;;;;;;;;;;;2.10;99.90;;;;;;22802206;26;19928;-76
2024/04/21 19:59:08;;;;;;;;;;;1.80;99.90;;;;;;22799897;26;20283;-76
2024/04/21 20:09:09;;;;;;;;;;;1.50;99.90;;;;;;22805670;26;19955;-76
2024/04/21 20:19:09;;;;;;;;;;;1.20;99.90;;;;;;22806236;26;19928;-75
2024/04/21 20:29:11;;;;;;;;;;;1.10;99.90;;;;;;22797815;26;19959;-75
2024/04/21 20:39:12;;;;;;;;;;;1.00;99.90;;;;;;22789699;26;19935;-75
2024/04/21 20:49:12;;;;;;;;;;;1.20;99.90;;;;;;22803853;26;19997;-75
2024/04/21 20:59:13;;;;;;;;;;;1.00;99.90;;;;;;22796959;26;19927;-76
2024/04/21 21:09:13;;;;;;;;;;;1.20;99.90;;;;;;22818018;26;19935;-75
2024/04/21 21:19:14;;;;;;;;;;;1.00;99.90;;;;;;22813597;26;20003;-75
2024/04/21 21:29:15;;;;;;;;;;;0.90;99.90;;;;;;22801638;26;19942;-75
2024/04/21 21:39:15;;;;;;;;;;;0.90;99.90;;;;;;22801351;26;19931;-75
2024/04/21 21:49:16;;;;;;;;;;;0.90;99.90;;;;;;22806769;26;20001;-75
2024/04/21 21:59:21;;;;;;;;;;;0.90;99.90;;;;;;22813887;26;20381;-75
2024/04/21 22:09:22;;;;;;;;;;;0.80;99.90;;;;;;22810354;26;19935;-76
2024/04/21 22:19:22;;;;;;;;;;;0.90;99.90;;;;;;22804951;26;20438;-76
2024/04/21 22:29:23;;;;;;;;;;;0.80;99.90;;;;;;22797650;26;19935;-76
2024/04/21 22:39:24;;;;;;;;;;;0.70;99.90;;;;;;22812592;26;19935;-75
2024/04/21 22:49:24;;;;;;;;;;;0.90;99.90;;;;;;22806690;26;19928;-75
2024/04/21 22:59:25;;;;;;;;;;;0.90;99.90;;;;;;22797038;26;19927;-76
2024/04/21 23:09:26;;;;;;;;;;;0.90;99.90;;;;;;22796843;26;19927;-75
2024/04/21 23:19:26;;;;;;;;;;;0.70;99.90;;;;;;22810947;26;20004;-76
2024/04/21 23:29:27;;;;;;;;;;;0.40;99.90;;;;;;22795697;26;20450;-75
2024/04/21 23:39:27;;;;;;;;;;;0.60;99.90;;;;;;22809714;26;19927;-76
2024/04/21 23:49:28;;;;;;;;;;;0.70;99.90;;;;;;22792994;26;20363;-75
2024/04/21 23:59:29;;;;;;;;;;;0.70;99.90;;;;;;22792879;26;19927;-75
